Huvudsida
METAR-TAF:

METAR-TAF

Flygplatser :

Pinang, Malaysia

latitud: 05-18N, longitud: 100-16E, höjd: 3 m

Aktuellt väderrapport

Denna rapport gjordes för 42 minuter sedan, klockan 05:00 UTC
Vind 8 kt från sydväst
Temperatur 33°C
Fuktighet 59%
Tryck 1009 hPa
Sikt: 8000 m
Få moln på en höjd av 2000 ft
Brutna moln på en höjd av 28000 ft

METAR: WMKP 230500Z 23008KT 8000 FEW020 BKN280 33/24 Q1009 NOSIG

Tid: 13:42 (05:42 UTC)

Väderprognos

Denna rapport gjordes för 42 minuter sedan, klockan 05:00 UTC
Prognos gäller från 23 kl. 06 UTC till 24 kl. 06 UTC
Vind 10 kt från syd/sydväst
Sikt: 9000 m
Få moln på en höjd av 2000 ft
Spridda moln på en höjd av 14000 ft
Brutna moln på en höjd av 28000 ft
Blir
från 23 kl. 12 UTC till 23 kl. 14 UTC
Vind 3 kt varierande vindriktning
Få moln på en höjd av 2500 ft

TAF: WMKP 230500Z 2306/2406 21010KT 9000 FEW020 SCT140 BKN280 BECMG 2312/2314 VRB03KT FEW025

Aktuella väderrapporter och prognoser från 4000 flygplatser (METAR- och TAF-rapporter).

De tillgängliga stationerna syns som gula och röda prickar på kartan.

För musen över prickarna för att se namnen på stationerna.

Klicka sedan för att få väderrapporter och prognoser.

För att ändra kartan: Klicka på de gröna knapparna med ett svart kors på för att zooma in; den gröna knappen med ett streck på för att zooma ut; eller på de gröna pilarna för angränsande kartor.


METAR-TAF: